sensor_id;sensor_type;location;lat;lon;timestamp;P1;durP1;ratioP1;P2;durP2;ratioP2
68479;SDS011;55469;48.934;12.050;2023-02-18T00:01:11;1.67;;;1.50;;
68479;SDS011;55469;48.934;12.050;2023-02-18T00:03:42;1.50;;;1.40;;
68479;SDS011;55469;48.934;12.050;2023-02-18T00:06:11;1.33;;;1.20;;
68479;SDS011;55469;48.934;12.050;2023-02-18T00:08:49;1.50;;;1.40;;
68479;SDS011;55469;48.934;12.050;2023-02-18T00:11:16;1.52;;;1.30;;
68479;SDS011;55469;48.934;12.050;2023-02-18T00:16:38;1.63;;;1.20;;
68479;SDS011;55469;48.934;12.050;2023-02-18T00:19:04;1.42;;;1.30;;
68479;SDS011;55469;48.934;12.050;2023-02-18T00:21:32;1.50;;;1.40;;
68479;SDS011;55469;48.934;12.050;2023-02-18T00:23:59;2.33;;;1.30;;
68479;SDS011;55469;48.934;12.050;2023-02-18T00:26:25;1.25;;;1.15;;
68479;SDS011;55469;48.934;12.050;2023-02-18T00:28:51;1.52;;;1.33;;
68479;SDS011;55469;48.934;12.050;2023-02-18T00:31:20;1.67;;;1.35;;
68479;SDS011;55469;48.934;12.050;2023-02-18T00:33:55;1.55;;;1.35;;
68479;SDS011;55469;48.934;12.050;2023-02-18T00:36:22;1.20;;;1.02;;
68479;SDS011;55469;48.934;12.050;2023-02-18T00:38:50;1.40;;;1.15;;
68479;SDS011;55469;48.934;12.050;2023-02-18T00:41:18;2.03;;;1.40;;
68479;SDS011;55469;48.934;12.050;2023-02-18T00:43:46;1.48;;;1.30;;
68479;SDS011;55469;48.934;12.050;2023-02-18T00:46:12;1.40;;;1.30;;
68479;SDS011;55469;48.934;12.050;2023-02-18T00:48:38;1.55;;;1.30;;
68479;SDS011;55469;48.934;12.050;2023-02-18T00:51:04;1.25;;;1.15;;
68479;SDS011;55469;48.934;12.050;2023-02-18T00:53:31;1.60;;;1.23;;
68479;SDS011;55469;48.934;12.050;2023-02-18T00:55:58;1.60;;;1.23;;
68479;SDS011;55469;48.934;12.050;2023-02-18T00:58:24;2.60;;;1.30;;
68479;SDS011;55469;48.934;12.050;2023-02-18T01:00:51;1.70;;;1.30;;
68479;SDS011;55469;48.934;12.050;2023-02-18T01:03:17;1.88;;;1.30;;
68479;SDS011;55469;48.934;12.050;2023-02-18T01:05:43;1.30;;;1.20;;
68479;SDS011;55469;48.934;12.050;2023-02-18T01:08:10;2.10;;;1.35;;
68479;SDS011;55469;48.934;12.050;2023-02-18T01:10:39;1.33;;;1.20;;
68479;SDS011;55469;48.934;12.050;2023-02-18T01:13:08;2.83;;;1.38;;
68479;SDS011;55469;48.934;12.050;2023-02-18T01:15:36;1.40;;;1.25;;
68479;SDS011;55469;48.934;12.050;2023-02-18T01:18:03;1.83;;;1.40;;
68479;SDS011;55469;48.934;12.050;2023-02-18T01:20:29;1.73;;;1.48;;
68479;SDS011;55469;48.934;12.050;2023-02-18T01:22:55;1.80;;;1.40;;
68479;SDS011;55469;48.934;12.050;2023-02-18T01:25:21;1.40;;;1.30;;
68479;SDS011;55469;48.934;12.050;2023-02-18T01:27:47;1.30;;;1.13;;
68479;SDS011;55469;48.934;12.050;2023-02-18T01:30:14;1.30;;;1.20;;
68479;SDS011;55469;48.934;12.050;2023-02-18T01:32:42;1.70;;;1.33;;
68479;SDS011;55469;48.934;12.050;2023-02-18T01:35:16;1.52;;;1.40;;
68479;SDS011;55469;48.934;12.050;2023-02-18T01:37:44;1.42;;;1.33;;
68479;SDS011;55469;48.934;12.050;2023-02-18T01:40:11;1.60;;;1.27;;
68479;SDS011;55469;48.934;12.050;2023-02-18T01:42:39;1.70;;;1.52;;
68479;SDS011;55469;48.934;12.050;2023-02-18T01:48:05;2.65;;;1.35;;
68479;SDS011;55469;48.934;12.050;2023-02-18T01:50:37;1.55;;;1.45;;
68479;SDS011;55469;48.934;12.050;2023-02-18T01:53:08;1.37;;;1.20;;
68479;SDS011;55469;48.934;12.050;2023-02-18T01:55:34;1.65;;;1.10;;
68479;SDS011;55469;48.934;12.050;2023-02-18T01:58:01;1.98;;;1.40;;
68479;SDS011;55469;48.934;12.050;2023-02-18T02:00:27;1.45;;;1.30;;
68479;SDS011;55469;48.934;12.050;2023-02-18T02:02:53;1.85;;;1.45;;
68479;SDS011;55469;48.934;12.050;2023-02-18T02:05:19;1.92;;;1.30;;
68479;SDS011;55469;48.934;12.050;2023-02-18T02:07:46;1.70;;;1.35;;
68479;SDS011;55469;48.934;12.050;2023-02-18T02:10:16;1.67;;;1.40;;
68479;SDS011;55469;48.934;12.050;2023-02-18T02:13:02;1.50;;;1.40;;
68479;SDS011;55469;48.934;12.050;2023-02-18T02:15:49;2.05;;;1.40;;
68479;SDS011;55469;48.934;12.050;2023-02-18T02:18:46;1.45;;;1.35;;
68479;SDS011;55469;48.934;12.050;2023-02-18T02:27:41;1.98;;;1.48;;
68479;SDS011;55469;48.934;12.050;2023-02-18T02:39:37;1.30;;;1.20;;
68479;SDS011;55469;48.934;12.050;2023-02-18T02:45:17;1.40;;;1.30;;
68479;SDS011;55469;48.934;12.050;2023-02-18T02:47:56;1.52;;;1.23;;
68479;SDS011;55469;48.934;12.050;2023-02-18T02:53:52;1.20;;;1.10;;
68479;SDS011;55469;48.934;12.050;2023-02-18T02:56:20;1.27;;;1.17;;
68479;SDS011;55469;48.934;12.050;2023-02-18T02:58:57;2.40;;;1.40;;
68479;SDS011;55469;48.934;12.050;2023-02-18T03:10:55;1.30;;;1.20;;
68479;SDS011;55469;48.934;12.050;2023-02-18T03:16:24;2.17;;;1.50;;
68479;SDS011;55469;48.934;12.050;2023-02-18T03:21:43;1.55;;;1.40;;
68479;SDS011;55469;48.934;12.050;2023-02-18T03:26:53;1.33;;;1.20;;
68479;SDS011;55469;48.934;12.050;2023-02-18T03:29:25;2.42;;;1.50;;
68479;SDS011;55469;48.934;12.050;2023-02-18T03:31:53;1.83;;;1.40;;
68479;SDS011;55469;48.934;12.050;2023-02-18T03:34:25;1.52;;;1.42;;
68479;SDS011;55469;48.934;12.050;2023-02-18T03:36:58;1.55;;;1.20;;
68479;SDS011;55469;48.934;12.050;2023-02-18T03:39:26;2.10;;;1.40;;
68479;SDS011;55469;48.934;12.050;2023-02-18T03:41:55;1.50;;;1.40;;
68479;SDS011;55469;48.934;12.050;2023-02-18T03:44:21;1.45;;;1.25;;
68479;SDS011;55469;48.934;12.050;2023-02-18T03:46:49;2.15;;;1.23;;
68479;SDS011;55469;48.934;12.050;2023-02-18T03:49:15;1.90;;;1.40;;
68479;SDS011;55469;48.934;12.050;2023-02-18T03:51:41;1.67;;;1.35;;
68479;SDS011;55469;48.934;12.050;2023-02-18T03:54:08;1.67;;;1.10;;
68479;SDS011;55469;48.934;12.050;2023-02-18T03:56:35;1.42;;;1.20;;
68479;SDS011;55469;48.934;12.050;2023-02-18T03:59:01;1.65;;;1.23;;
68479;SDS011;55469;48.934;12.050;2023-02-18T04:01:30;2.13;;;1.50;;
68479;SDS011;55469;48.934;12.050;2023-02-18T04:03:56;1.58;;;1.25;;
68479;SDS011;55469;48.934;12.050;2023-02-18T04:06:22;1.70;;;1.33;;
68479;SDS011;55469;48.934;12.050;2023-02-18T04:08:48;1.90;;;1.27;;
68479;SDS011;55469;48.934;12.050;2023-02-18T04:11:14;1.80;;;1.05;;
68479;SDS011;55469;48.934;12.050;2023-02-18T04:13:40;1.33;;;1.10;;
68479;SDS011;55469;48.934;12.050;2023-02-18T04:16:05;1.40;;;1.30;;
68479;SDS011;55469;48.934;12.050;2023-02-18T04:18:31;2.25;;;1.08;;
68479;SDS011;55469;48.934;12.050;2023-02-18T04:20:57;1.35;;;1.25;;
68479;SDS011;55469;48.934;12.050;2023-02-18T04:23:23;1.27;;;1.17;;
68479;SDS011;55469;48.934;12.050;2023-02-18T04:25:49;1.27;;;1.10;;
68479;SDS011;55469;48.934;12.050;2023-02-18T04:28:15;1.30;;;1.13;;
68479;SDS011;55469;48.934;12.050;2023-02-18T04:30:42;1.33;;;1.17;;
68479;SDS011;55469;48.934;12.050;2023-02-18T04:33:08;0.90;;;0.90;;
68479;SDS011;55469;48.934;12.050;2023-02-18T04:35:34;2.45;;;1.27;;
68479;SDS011;55469;48.934;12.050;2023-02-18T04:38:01;1.20;;;1.10;;
68479;SDS011;55469;48.934;12.050;2023-02-18T04:40:27;1.10;;;1.00;;
68479;SDS011;55469;48.934;12.050;2023-02-18T04:42:55;1.80;;;1.20;;
68479;SDS011;55469;48.934;12.050;2023-02-18T04:45:23;1.08;;;0.95;;
68479;SDS011;55469;48.934;12.050;2023-02-18T04:47:49;1.10;;;1.00;;
68479;SDS011;55469;48.934;12.050;2023-02-18T04:50:15;1.42;;;1.10;;
68479;SDS011;55469;48.934;12.050;2023-02-18T04:52:41;2.30;;;1.10;;
68479;SDS011;55469;48.934;12.050;2023-02-18T04:55:07;1.75;;;1.00;;
68479;SDS011;55469;48.934;12.050;2023-02-18T04:57:33;1.20;;;1.10;;
68479;SDS011;55469;48.934;12.050;2023-02-18T04:59:59;2.15;;;1.10;;
68479;SDS011;55469;48.934;12.050;2023-02-18T05:02:25;1.23;;;1.10;;
68479;SDS011;55469;48.934;12.050;2023-02-18T05:04:50;1.73;;;1.20;;
68479;SDS011;55469;48.934;12.050;2023-02-18T05:07:16;1.17;;;1.08;;
68479;SDS011;55469;48.934;12.050;2023-02-18T05:09:42;1.20;;;1.05;;
68479;SDS011;55469;48.934;12.050;2023-02-18T05:12:08;1.63;;;1.20;;
68479;SDS011;55469;48.934;12.050;2023-02-18T05:14:33;1.40;;;1.05;;
68479;SDS011;55469;48.934;12.050;2023-02-18T05:16:59;1.20;;;1.10;;
68479;SDS011;55469;48.934;12.050;2023-02-18T05:19:25;1.10;;;1.00;;
68479;SDS011;55469;48.934;12.050;2023-02-18T05:21:51;1.10;;;1.00;;
68479;SDS011;55469;48.934;12.050;2023-02-18T05:24:16;1.00;;;0.90;;
68479;SDS011;55469;48.934;12.050;2023-02-18T05:26:42;1.65;;;1.10;;
68479;SDS011;55469;48.934;12.050;2023-02-18T05:29:08;0.98;;;0.90;;
68479;SDS011;55469;48.934;12.050;2023-02-18T05:31:33;1.40;;;1.30;;
68479;SDS011;55469;48.934;12.050;2023-02-18T05:33:59;1.10;;;1.00;;
68479;SDS011;55469;48.934;12.050;2023-02-18T05:36:25;1.20;;;0.90;;
68479;SDS011;55469;48.934;12.050;2023-02-18T05:38:51;1.52;;;1.10;;
68479;SDS011;55469;48.934;12.050;2023-02-18T05:41:16;1.35;;;1.10;;
68479;SDS011;55469;48.934;12.050;2023-02-18T05:43:42;0.80;;;0.80;;
68479;SDS011;55469;48.934;12.050;2023-02-18T05:46:26;1.10;;;1.00;;
68479;SDS011;55469;48.934;12.050;2023-02-18T05:48:52;0.85;;;0.85;;
68479;SDS011;55469;48.934;12.050;2023-02-18T05:51:18;1.08;;;0.90;;
68479;SDS011;55469;48.934;12.050;2023-02-18T05:53:43;1.00;;;0.90;;
68479;SDS011;55469;48.934;12.050;2023-02-18T05:56:09;1.00;;;0.90;;
68479;SDS011;55469;48.934;12.050;2023-02-18T05:58:35;0.90;;;0.90;;
68479;SDS011;55469;48.934;12.050;2023-02-18T06:01:01;1.23;;;1.00;;
68479;SDS011;55469;48.934;12.050;2023-02-18T06:03:27;1.40;;;1.20;;
68479;SDS011;55469;48.934;12.050;2023-02-18T06:05:52;1.15;;;0.98;;
68479;SDS011;55469;48.934;12.050;2023-02-18T06:08:18;0.98;;;0.90;;
68479;SDS011;55469;48.934;12.050;2023-02-18T06:10:44;0.80;;;0.80;;
68479;SDS011;55469;48.934;12.050;2023-02-18T06:13:10;0.95;;;0.90;;
68479;SDS011;55469;48.934;12.050;2023-02-18T06:15:36;0.93;;;0.90;;
68479;SDS011;55469;48.934;12.050;2023-02-18T06:18:03;0.93;;;0.90;;
68479;SDS011;55469;48.934;12.050;2023-02-18T06:20:29;1.30;;;1.20;;
68479;SDS011;55469;48.934;12.050;2023-02-18T06:22:55;1.17;;;0.90;;
68479;SDS011;55469;48.934;12.050;2023-02-18T06:25:21;0.90;;;0.90;;
68479;SDS011;55469;48.934;12.050;2023-02-18T06:27:46;1.00;;;0.90;;
68479;SDS011;55469;48.934;12.050;2023-02-18T06:30:12;1.52;;;1.10;;
68479;SDS011;55469;48.934;12.050;2023-02-18T06:32:38;0.90;;;0.80;;
68479;SDS011;55469;48.934;12.050;2023-02-18T06:35:04;1.00;;;0.90;;
68479;SDS011;55469;48.934;12.050;2023-02-18T06:37:30;1.08;;;0.73;;
68479;SDS011;55469;48.934;12.050;2023-02-18T06:39:56;0.95;;;0.88;;
68479;SDS011;55469;48.934;12.050;2023-02-18T06:42:22;1.17;;;0.98;;
68479;SDS011;55469;48.934;12.050;2023-02-18T06:44:48;0.93;;;0.82;;
68479;SDS011;55469;48.934;12.050;2023-02-18T06:47:13;0.95;;;0.95;;
68479;SDS011;55469;48.934;12.050;2023-02-18T06:49:39;1.10;;;1.00;;
68479;SDS011;55469;48.934;12.050;2023-02-18T06:52:05;1.70;;;1.13;;
68479;SDS011;55469;48.934;12.050;2023-02-18T06:54:31;1.13;;;1.00;;
68479;SDS011;55469;48.934;12.050;2023-02-18T06:56:58;1.80;;;1.10;;
68479;SDS011;55469;48.934;12.050;2023-02-18T06:59:24;0.80;;;0.80;;
68479;SDS011;55469;48.934;12.050;2023-02-18T07:01:49;1.20;;;1.00;;
68479;SDS011;55469;48.934;12.050;2023-02-18T07:04:15;1.05;;;0.98;;
68479;SDS011;55469;48.934;12.050;2023-02-18T07:06:41;1.60;;;1.00;;
68479;SDS011;55469;48.934;12.050;2023-02-18T07:09:07;0.90;;;0.90;;
68479;SDS011;55469;48.934;12.050;2023-02-18T07:11:32;1.20;;;1.00;;
68479;SDS011;55469;48.934;12.050;2023-02-18T07:13:58;0.93;;;0.93;;
68479;SDS011;55469;48.934;12.050;2023-02-18T07:16:24;1.10;;;0.80;;
68479;SDS011;55469;48.934;12.050;2023-02-18T07:18:50;0.93;;;0.90;;
68479;SDS011;55469;48.934;12.050;2023-02-18T07:21:16;1.10;;;1.00;;
68479;SDS011;55469;48.934;12.050;2023-02-18T07:23:42;2.15;;;1.05;;
68479;SDS011;55469;48.934;12.050;2023-02-18T07:26:11;1.02;;;0.90;;
68479;SDS011;55469;48.934;12.050;2023-02-18T07:28:38;1.38;;;1.00;;
68479;SDS011;55469;48.934;12.050;2023-02-18T07:31:05;0.95;;;0.90;;
68479;SDS011;55469;48.934;12.050;2023-02-18T07:33:31;1.23;;;1.00;;
68479;SDS011;55469;48.934;12.050;2023-02-18T07:35:58;1.10;;;1.00;;
68479;SDS011;55469;48.934;12.050;2023-02-18T07:38:26;1.25;;;1.15;;
68479;SDS011;55469;48.934;12.050;2023-02-18T07:40:52;1.77;;;0.90;;
68479;SDS011;55469;48.934;12.050;2023-02-18T07:43:19;1.27;;;1.02;;
68479;SDS011;55469;48.934;12.050;2023-02-18T07:45:45;0.90;;;0.90;;
68479;SDS011;55469;48.934;12.050;2023-02-18T07:48:10;1.23;;;0.90;;
68479;SDS011;55469;48.934;12.050;2023-02-18T07:50:39;1.60;;;1.20;;
68479;SDS011;55469;48.934;12.050;2023-02-18T07:53:07;1.00;;;0.82;;
68479;SDS011;55469;48.934;12.050;2023-02-18T07:55:35;2.00;;;0.90;;
68479;SDS011;55469;48.934;12.050;2023-02-18T07:58:17;1.25;;;1.10;;
68479;SDS011;55469;48.934;12.050;2023-02-18T08:00:48;1.80;;;1.17;;
68479;SDS011;55469;48.934;12.050;2023-02-18T08:03:15;1.35;;;1.20;;
68479;SDS011;55469;48.934;12.050;2023-02-18T08:05:42;1.25;;;1.10;;
68479;SDS011;55469;48.934;12.050;2023-02-18T08:08:11;0.85;;;0.82;;
68479;SDS011;55469;48.934;12.050;2023-02-18T08:10:39;1.35;;;1.13;;
68479;SDS011;55469;48.934;12.050;2023-02-18T08:13:04;1.23;;;1.00;;
68479;SDS011;55469;48.934;12.050;2023-02-18T08:15:30;1.10;;;1.00;;
68479;SDS011;55469;48.934;12.050;2023-02-18T08:17:56;1.52;;;1.10;;
68479;SDS011;55469;48.934;12.050;2023-02-18T08:20:21;1.42;;;1.17;;
68479;SDS011;55469;48.934;12.050;2023-02-18T08:22:47;1.63;;;1.27;;
68479;SDS011;55469;48.934;12.050;2023-02-18T08:25:13;1.40;;;1.15;;
68479;SDS011;55469;48.934;12.050;2023-02-18T08:27:40;1.17;;;1.08;;
68479;SDS011;55469;48.934;12.050;2023-02-18T08:30:05;1.23;;;1.10;;
68479;SDS011;55469;48.934;12.050;2023-02-18T08:32:32;1.10;;;1.00;;
68479;SDS011;55469;48.934;12.050;2023-02-18T08:34:58;1.23;;;1.13;;
68479;SDS011;55469;48.934;12.050;2023-02-18T08:37:24;1.75;;;1.42;;
68479;SDS011;55469;48.934;12.050;2023-02-18T08:39:49;1.20;;;1.10;;
68479;SDS011;55469;48.934;12.050;2023-02-18T08:42:15;1.20;;;1.10;;
68479;SDS011;55469;48.934;12.050;2023-02-18T08:44:41;1.05;;;0.95;;
68479;SDS011;55469;48.934;12.050;2023-02-18T08:47:07;1.30;;;1.20;;
68479;SDS011;55469;48.934;12.050;2023-02-18T08:49:32;1.10;;;1.00;;
68479;SDS011;55469;48.934;12.050;2023-02-18T08:52:00;1.17;;;1.02;;
68479;SDS011;55469;48.934;12.050;2023-02-18T08:54:27;1.42;;;1.10;;
68479;SDS011;55469;48.934;12.050;2023-02-18T08:56:54;1.60;;;1.20;;
68479;SDS011;55469;48.934;12.050;2023-02-18T08:59:22;1.42;;;1.10;;
68479;SDS011;55469;48.934;12.050;2023-02-18T09:01:49;1.50;;;1.20;;
68479;SDS011;55469;48.934;12.050;2023-02-18T09:04:14;1.92;;;1.55;;
68479;SDS011;55469;48.934;12.050;2023-02-18T09:06:40;1.60;;;1.30;;
68479;SDS011;55469;48.934;12.050;2023-02-18T09:09:06;1.33;;;1.20;;
68479;SDS011;55469;48.934;12.050;2023-02-18T09:11:32;1.10;;;1.00;;
68479;SDS011;55469;48.934;12.050;2023-02-18T09:13:58;1.42;;;1.20;;
68479;SDS011;55469;48.934;12.050;2023-02-18T09:16:24;1.50;;;1.10;;
68479;SDS011;55469;48.934;12.050;2023-02-18T09:18:50;2.13;;;1.30;;
68479;SDS011;55469;48.934;12.050;2023-02-18T09:21:16;2.08;;;1.30;;
68479;SDS011;55469;48.934;12.050;2023-02-18T09:23:44;2.05;;;1.30;;
68479;SDS011;55469;48.934;12.050;2023-02-18T09:26:11;2.25;;;1.20;;
68479;SDS011;55469;48.934;12.050;2023-02-18T09:28:39;1.20;;;1.10;;
68479;SDS011;55469;48.934;12.050;2023-02-18T09:31:16;1.58;;;1.17;;
68479;SDS011;55469;48.934;12.050;2023-02-18T09:33:51;1.30;;;1.10;;
68479;SDS011;55469;48.934;12.050;2023-02-18T09:36:25;2.08;;;1.35;;
68479;SDS011;55469;48.934;12.050;2023-02-18T09:38:51;1.58;;;1.30;;
68479;SDS011;55469;48.934;12.050;2023-02-18T09:46:47;1.58;;;1.30;;
68479;SDS011;55469;48.934;12.050;2023-02-18T09:49:31;1.08;;;1.00;;
68479;SDS011;55469;48.934;12.050;2023-02-18T09:52:21;2.97;;;1.20;;
68479;SDS011;55469;48.934;12.050;2023-02-18T09:54:52;1.23;;;1.13;;
68479;SDS011;55469;48.934;12.050;2023-02-18T09:57:23;1.00;;;1.00;;
68479;SDS011;55469;48.934;12.050;2023-02-18T09:59:59;2.20;;;1.40;;
68479;SDS011;55469;48.934;12.050;2023-02-18T10:02:29;1.90;;;1.10;;
68479;SDS011;55469;48.934;12.050;2023-02-18T10:04:56;1.20;;;1.10;;
68479;SDS011;55469;48.934;12.050;2023-02-18T10:07:24;2.03;;;1.23;;
68479;SDS011;55469;48.934;12.050;2023-02-18T10:09:53;1.48;;;1.20;;
68479;SDS011;55469;48.934;12.050;2023-02-18T10:12:23;1.20;;;1.10;;
68479;SDS011;55469;48.934;12.050;2023-02-18T10:14:51;1.40;;;1.30;;
68479;SDS011;55469;48.934;12.050;2023-02-18T10:17:24;1.42;;;1.13;;
68479;SDS011;55469;48.934;12.050;2023-02-18T10:19:54;1.95;;;1.50;;
68479;SDS011;55469;48.934;12.050;2023-02-18T10:22:21;2.25;;;1.33;;
68479;SDS011;55469;48.934;12.050;2023-02-18T10:24:51;1.38;;;1.17;;
68479;SDS011;55469;48.934;12.050;2023-02-18T10:27:23;1.35;;;1.25;;
68479;SDS011;55469;48.934;12.050;2023-02-18T10:29:59;1.98;;;1.38;;
68479;SDS011;55469;48.934;12.050;2023-02-18T10:32:46;1.90;;;1.15;;
68479;SDS011;55469;48.934;12.050;2023-02-18T10:35:25;1.48;;;1.27;;
68479;SDS011;55469;48.934;12.050;2023-02-18T10:38:09;1.90;;;1.17;;
68479;SDS011;55469;48.934;12.050;2023-02-18T10:52:05;1.85;;;1.30;;
68479;SDS011;55469;48.934;12.050;2023-02-18T10:57:23;3.22;;;1.35;;
68479;SDS011;55469;48.934;12.050;2023-02-18T10:59:54;1.60;;;1.27;;
68479;SDS011;55469;48.934;12.050;2023-02-18T11:05:34;1.80;;;1.50;;
68479;SDS011;55469;48.934;12.050;2023-02-18T11:08:00;1.52;;;1.30;;
68479;SDS011;55469;48.934;12.050;2023-02-18T11:10:32;1.60;;;1.30;;
68479;SDS011;55469;48.934;12.050;2023-02-18T11:13:04;1.38;;;1.20;;
68479;SDS011;55469;48.934;12.050;2023-02-18T11:15:32;1.50;;;1.40;;
68479;SDS011;55469;48.934;12.050;2023-02-18T11:20:57;1.40;;;1.30;;
68479;SDS011;55469;48.934;12.050;2023-02-18T11:23:25;1.42;;;1.33;;
68479;SDS011;55469;48.934;12.050;2023-02-18T11:25:59;1.92;;;1.23;;
68479;SDS011;55469;48.934;12.050;2023-02-18T11:28:30;1.48;;;1.38;;
68479;SDS011;55469;48.934;12.050;2023-02-18T11:31:06;1.50;;;1.40;;
68479;SDS011;55469;48.934;12.050;2023-02-18T11:33:38;1.25;;;1.15;;
68479;SDS011;55469;48.934;12.050;2023-02-18T11:39:22;1.75;;;1.30;;
68479;SDS011;55469;48.934;12.050;2023-02-18T11:41:56;1.52;;;1.30;;
68479;SDS011;55469;48.934;12.050;2023-02-18T11:49:37;1.83;;;1.30;;
68479;SDS011;55469;48.934;12.050;2023-02-18T11:52:16;1.70;;;1.40;;
68479;SDS011;55469;48.934;12.050;2023-02-18T11:57:34;1.52;;;1.23;;
68479;SDS011;55469;48.934;12.050;2023-02-18T12:00:05;1.55;;;1.42;;
68479;SDS011;55469;48.934;12.050;2023-02-18T12:06:38;1.75;;;1.30;;
68479;SDS011;55469;48.934;12.050;2023-02-18T12:12:10;1.73;;;1.10;;
68479;SDS011;55469;48.934;12.050;2023-02-18T12:14:49;1.30;;;1.20;;
68479;SDS011;55469;48.934;12.050;2023-02-18T12:23:02;1.05;;;0.95;;
68479;SDS011;55469;48.934;12.050;2023-02-18T12:28:48;1.27;;;1.10;;
68479;SDS011;55469;48.934;12.050;2023-02-18T12:44:13;1.45;;;1.05;;
68479;SDS011;55469;48.934;12.050;2023-02-18T12:49:45;1.20;;;1.10;;
68479;SDS011;55469;48.934;12.050;2023-02-18T13:09:24;1.20;;;1.10;;
68479;SDS011;55469;48.934;12.050;2023-02-18T13:12:12;1.13;;;0.98;;
68479;SDS011;55469;48.934;12.050;2023-02-18T13:14:47;1.25;;;1.00;;
68479;SDS011;55469;48.934;12.050;2023-02-18T13:17:21;1.73;;;1.00;;
68479;SDS011;55469;48.934;12.050;2023-02-18T13:19:56;1.40;;;1.00;;
68479;SDS011;55469;48.934;12.050;2023-02-18T13:22:28;1.25;;;1.00;;
68479;SDS011;55469;48.934;12.050;2023-02-18T13:24:55;0.90;;;0.90;;
68479;SDS011;55469;48.934;12.050;2023-02-18T13:27:35;2.75;;;1.17;;
68479;SDS011;55469;48.934;12.050;2023-02-18T13:30:17;0.90;;;0.90;;
68479;SDS011;55469;48.934;12.050;2023-02-18T13:35:45;2.08;;;1.00;;
68479;SDS011;55469;48.934;12.050;2023-02-18T13:38:34;1.13;;;1.00;;
68479;SDS011;55469;48.934;12.050;2023-02-18T13:41:36;0.90;;;0.90;;
68479;SDS011;55469;48.934;12.050;2023-02-18T13:44:14;1.08;;;0.90;;
68479;SDS011;55469;48.934;12.050;2023-02-18T13:46:54;1.00;;;0.90;;
68479;SDS011;55469;48.934;12.050;2023-02-18T13:49:24;1.35;;;1.05;;
68479;SDS011;55469;48.934;12.050;2023-02-18T13:51:56;1.10;;;1.00;;
68479;SDS011;55469;48.934;12.050;2023-02-18T13:54:27;1.05;;;0.95;;
68479;SDS011;55469;48.934;12.050;2023-02-18T13:57:06;1.13;;;0.80;;
68479;SDS011;55469;48.934;12.050;2023-02-18T13:59:49;1.00;;;0.90;;
68479;SDS011;55469;48.934;12.050;2023-02-18T14:04:50;2.17;;;1.10;;
68479;SDS011;55469;48.934;12.050;2023-02-18T14:07:24;0.90;;;0.90;;
68479;SDS011;55469;48.934;12.050;2023-02-18T14:09:51;1.13;;;1.00;;
68479;SDS011;55469;48.934;12.050;2023-02-18T14:13:00;0.85;;;0.85;;
68479;SDS011;55469;48.934;12.050;2023-02-18T14:23:10;1.77;;;0.93;;
68479;SDS011;55469;48.934;12.050;2023-02-18T14:26:06;1.92;;;1.13;;
68479;SDS011;55469;48.934;12.050;2023-02-18T14:28:40;1.50;;;1.08;;
68479;SDS011;55469;48.934;12.050;2023-02-18T14:31:35;1.15;;;1.05;;
68479;SDS011;55469;48.934;12.050;2023-02-18T14:34:20;1.50;;;1.10;;
68479;SDS011;55469;48.934;12.050;2023-02-18T14:37:35;0.80;;;0.80;;
68479;SDS011;55469;48.934;12.050;2023-02-18T14:40:27;1.30;;;1.00;;
68479;SDS011;55469;48.934;12.050;2023-02-18T14:49:39;1.63;;;1.02;;
68479;SDS011;55469;48.934;12.050;2023-02-18T14:55:02;1.20;;;1.10;;
68479;SDS011;55469;48.934;12.050;2023-02-18T14:57:42;1.50;;;1.20;;
68479;SDS011;55469;48.934;12.050;2023-02-18T15:00:14;1.25;;;1.15;;
68479;SDS011;55469;48.934;12.050;2023-02-18T15:02:46;1.55;;;0.95;;
68479;SDS011;55469;48.934;12.050;2023-02-18T15:05:21;1.35;;;1.25;;
68479;SDS011;55469;48.934;12.050;2023-02-18T15:13:08;1.40;;;1.20;;
68479;SDS011;55469;48.934;12.050;2023-02-18T15:15:42;1.10;;;1.00;;
68479;SDS011;55469;48.934;12.050;2023-02-18T15:18:20;1.13;;;1.00;;
68479;SDS011;55469;48.934;12.050;2023-02-18T15:20:54;1.27;;;1.00;;
68479;SDS011;55469;48.934;12.050;2023-02-18T15:23:20;1.38;;;1.05;;
68479;SDS011;55469;48.934;12.050;2023-02-18T15:25:50;1.30;;;1.10;;
68479;SDS011;55469;48.934;12.050;2023-02-18T15:28:25;1.15;;;1.05;;
68479;SDS011;55469;48.934;12.050;2023-02-18T15:30:57;1.13;;;1.00;;
68479;SDS011;55469;48.934;12.050;2023-02-18T15:33:26;1.20;;;1.00;;
68479;SDS011;55469;48.934;12.050;2023-02-18T15:36:02;1.88;;;1.02;;
68479;SDS011;55469;48.934;12.050;2023-02-18T15:38:30;1.17;;;1.08;;
68479;SDS011;55469;48.934;12.050;2023-02-18T15:40:57;1.25;;;1.15;;
68479;SDS011;55469;48.934;12.050;2023-02-18T15:43:24;1.38;;;1.25;;
68479;SDS011;55469;48.934;12.050;2023-02-18T15:45:55;1.38;;;1.20;;
68479;SDS011;55469;48.934;12.050;2023-02-18T15:48:36;1.65;;;1.30;;
68479;SDS011;55469;48.934;12.050;2023-02-18T15:51:12;1.38;;;1.10;;
68479;SDS011;55469;48.934;12.050;2023-02-18T15:53:42;1.33;;;1.20;;
68479;SDS011;55469;48.934;12.050;2023-02-18T15:56:15;1.20;;;1.10;;
68479;SDS011;55469;48.934;12.050;2023-02-18T15:58:48;1.40;;;1.15;;
68479;SDS011;55469;48.934;12.050;2023-02-18T16:01:24;1.30;;;1.20;;
68479;SDS011;55469;48.934;12.050;2023-02-18T16:03:52;1.13;;;0.95;;
68479;SDS011;55469;48.934;12.050;2023-02-18T16:06:24;1.98;;;1.40;;
68479;SDS011;55469;48.934;12.050;2023-02-18T16:09:03;2.65;;;1.20;;
68479;SDS011;55469;48.934;12.050;2023-02-18T16:11:41;1.52;;;1.20;;
68479;SDS011;55469;48.934;12.050;2023-02-18T16:14:21;1.50;;;1.08;;
68479;SDS011;55469;48.934;12.050;2023-02-18T16:17:03;1.50;;;1.20;;
68479;SDS011;55469;48.934;12.050;2023-02-18T16:19:29;1.83;;;1.17;;
68479;SDS011;55469;48.934;12.050;2023-02-18T16:21:56;1.52;;;1.20;;
68479;SDS011;55469;48.934;12.050;2023-02-18T16:26:53;2.63;;;1.33;;
68479;SDS011;55469;48.934;12.050;2023-02-18T16:29:26;1.30;;;1.20;;
68479;SDS011;55469;48.934;12.050;2023-02-18T16:32:01;1.65;;;1.40;;
68479;SDS011;55469;48.934;12.050;2023-02-18T16:34:27;1.20;;;1.10;;
68479;SDS011;55469;48.934;12.050;2023-02-18T16:36:53;1.58;;;1.30;;
68479;SDS011;55469;48.934;12.050;2023-02-18T16:42:10;1.38;;;1.23;;
68479;SDS011;55469;48.934;12.050;2023-02-18T16:44:37;1.83;;;1.30;;
68479;SDS011;55469;48.934;12.050;2023-02-18T16:47:04;1.60;;;1.50;;
68479;SDS011;55469;48.934;12.050;2023-02-18T16:49:31;1.55;;;1.45;;
68479;SDS011;55469;48.934;12.050;2023-02-18T16:51:58;1.85;;;1.52;;
68479;SDS011;55469;48.934;12.050;2023-02-18T16:54:29;1.27;;;1.17;;
68479;SDS011;55469;48.934;12.050;2023-02-18T16:56:55;1.67;;;1.48;;
68479;SDS011;55469;48.934;12.050;2023-02-18T16:59:20;1.65;;;1.20;;
68479;SDS011;55469;48.934;12.050;2023-02-18T17:01:46;1.90;;;1.40;;
68479;SDS011;55469;48.934;12.050;2023-02-18T17:04:13;1.50;;;1.25;;
68479;SDS011;55469;48.934;12.050;2023-02-18T17:06:41;2.58;;;1.48;;
68479;SDS011;55469;48.934;12.050;2023-02-18T17:09:12;1.38;;;1.27;;
68479;SDS011;55469;48.934;12.050;2023-02-18T17:11:45;1.40;;;1.30;;
68479;SDS011;55469;48.934;12.050;2023-02-18T17:14:14;1.95;;;1.38;;
68479;SDS011;55469;48.934;12.050;2023-02-18T17:16:42;2.33;;;1.50;;
68479;SDS011;55469;48.934;12.050;2023-02-18T17:19:09;2.05;;;1.52;;
68479;SDS011;55469;48.934;12.050;2023-02-18T17:21:35;1.80;;;1.45;;
68479;SDS011;55469;48.934;12.050;2023-02-18T17:24:00;1.63;;;1.40;;
68479;SDS011;55469;48.934;12.050;2023-02-18T17:26:28;2.78;;;1.52;;
68479;SDS011;55469;48.934;12.050;2023-02-18T17:28:58;1.50;;;1.30;;
68479;SDS011;55469;48.934;12.050;2023-02-18T17:31:29;2.25;;;1.60;;
68479;SDS011;55469;48.934;12.050;2023-02-18T17:34:01;2.42;;;1.77;;